Time;durP1;ratioP1;P1;durP2;ratioP2;P2;SDS_P1;SDS_P2;PMS_P1;PMS_P2;Temp;Humidity;BMP_temperature;BMP_pressure;BME280_temperature;BME280_humidity;BME280_pressure;Samples;Min_cycle;Max_cycle;Signal;HPM_P1;HPM_P2
2022/09/12 00:02:05;;;;;;;2.00;1.87;;;13.70;98.00;;;;;;5012902;28;20466;-68
2022/09/12 00:04:32;;;;;;;3.40;2.13;;;13.70;98.00;;;;;;5013224;28;20459;-69
2022/09/12 00:06:59;;;;;;;3.00;2.17;;;13.70;98.00;;;;;;5013066;28;20467;-67
2022/09/12 00:09:27;;;;;;;4.20;2.40;;;13.70;98.00;;;;;;5012846;28;20948;-68
2022/09/12 00:11:55;;;;;;;3.70;2.40;;;13.70;98.00;;;;;;5013008;28;20513;-68
2022/09/12 00:14:22;;;;;;;2.80;2.03;;;13.70;98.00;;;;;;5012229;28;20840;-68
2022/09/12 00:16:49;;;;;;;3.23;2.33;;;13.70;98.00;;;;;;5012826;28;20494;-68
2022/09/12 00:19:17;;;;;;;3.13;2.17;;;13.70;98.00;;;;;;5012627;28;20455;-68
2022/09/12 00:21:44;;;;;;;3.60;2.40;;;13.80;98.00;;;;;;5012823;28;20510;-67
2022/09/12 00:24:11;;;;;;;4.40;2.53;;;13.90;98.00;;;;;;5012879;28;20611;-68
2022/09/12 00:26:40;;;;;;;4.53;2.50;;;13.90;98.00;;;;;;5012764;28;20465;-67
2022/09/12 00:29:07;;;;;;;3.97;2.33;;;13.90;98.00;;;;;;5012721;28;20462;-67
2022/09/12 00:31:35;;;;;;;3.40;2.27;;;13.90;98.00;;;;;;5011570;28;20459;-68
2022/09/12 00:34:02;;;;;;;3.60;2.40;;;13.90;98.00;;;;;;5012425;28;20553;-68
2022/09/12 00:36:30;;;;;;;2.53;1.93;;;13.80;98.00;;;;;;5012511;28;20495;-68
2022/09/12 00:38:58;;;;;;;3.70;2.07;;;13.70;98.00;;;;;;5012253;28;20465;-68
2022/09/12 00:41:27;;;;;;;2.40;1.70;;;13.60;98.00;;;;;;5012292;28;20458;-68
2022/09/12 00:43:58;;;;;;;4.53;2.63;;;13.40;98.00;;;;;;5012165;28;20474;-67
2022/09/12 00:46:41;;;;;;;4.80;2.27;;;13.40;98.00;;;;;;5012326;28;20494;-68
2022/09/12 00:49:13;;;;;;;2.20;1.97;;;13.20;98.00;;;;;;5012094;28;20879;-67
2022/09/12 00:51:44;;;;;;;5.47;2.70;;;13.30;98.00;;;;;;5012159;28;20975;-68
2022/09/12 00:54:15;;;;;;;3.30;2.50;;;13.40;98.00;;;;;;5012218;28;20809;-68
2022/09/12 00:56:45;;;;;;;5.20;2.50;;;13.40;98.00;;;;;;5012239;28;20501;-67
2022/09/12 00:59:19;;;;;;;2.77;2.10;;;13.40;98.00;;;;;;5012157;28;20521;-68
2022/09/12 01:01:49;;;;;;;3.73;2.20;;;13.40;98.00;;;;;;5012085;28;20839;-68
2022/09/12 01:04:18;;;;;;;3.10;2.20;;;13.40;98.00;;;;;;5012003;28;20463;-67
2022/09/12 01:06:48;;;;;;;2.87;1.93;;;13.30;98.00;;;;;;5011927;28;20468;-68
2022/09/12 01:09:19;;;;;;;4.83;2.43;;;13.30;98.00;;;;;;5011887;28;20550;-69
2022/09/12 01:11:47;;;;;;;3.20;2.17;;;13.20;98.00;;;;;;5011923;28;20846;-68
2022/09/12 01:14:19;;;;;;;3.57;2.53;;;13.20;98.00;;;;;;5011735;28;20932;-67
2022/09/12 01:16:47;;;;;;;3.50;2.00;;;13.20;98.00;;;;;;5011714;28;20498;-67
2022/09/12 01:19:45;;;;;;;4.03;2.20;;;13.10;98.00;;;;;;5011927;28;20454;-68
2022/09/12 01:22:28;;;;;;;2.97;2.10;;;13.10;98.00;;;;;;4999503;28;20467;-68
2022/09/12 01:25:08;;;;;;;3.80;2.57;;;13.10;98.00;;;;;;4994315;28;20471;-67
2022/09/12 01:27:48;;;;;;;2.70;1.73;;;13.10;98.00;;;;;;5010718;28;20820;-68
2022/09/12 01:30:24;;;;;;;2.07;1.70;;;13.00;98.00;;;;;;5011717;28;20469;-68
2022/09/12 01:33:26;;;;;;;3.20;2.30;;;13.10;98.00;;;;;;5011550;28;20470;-67
2022/09/12 01:36:03;;;;;;;4.70;2.40;;;13.10;98.00;;;;;;4986968;28;20494;-67
2022/09/12 01:38:36;;;;;;;3.97;2.57;;;13.40;98.00;;;;;;5011476;28;20449;-68
2022/09/12 01:41:14;;;;;;;4.47;2.53;;;13.40;98.00;;;;;;5011649;28;20453;-67
2022/09/12 01:43:48;;;;;;;3.30;2.17;;;13.40;98.00;;;;;;5011542;28;20461;-68
2022/09/12 01:46:19;;;;;;;6.73;2.70;;;13.40;98.00;;;;;;5011293;28;20462;-68
2022/09/12 01:48:55;;;;;;;4.60;2.53;;;13.30;98.00;;;;;;5011313;28;20462;-68
2022/09/12 01:51:26;;;;;;;6.33;2.90;;;13.30;98.00;;;;;;5011238;28;20468;-67
2022/09/12 01:53:59;;;;;;;4.60;2.33;;;13.20;98.00;;;;;;5011310;28;20470;-69
2022/09/12 01:56:29;;;;;;;4.23;2.33;;;13.10;98.00;;;;;;4994375;28;20495;-69
2022/09/12 01:59:02;;;;;;;3.70;2.00;;;13.00;98.00;;;;;;5010822;28;20460;-67
2022/09/12 02:01:33;;;;;;;4.60;2.40;;;13.00;98.00;;;;;;5011557;28;20468;-67
2022/09/12 02:04:07;;;;;;;3.40;2.40;;;13.00;98.00;;;;;;5011645;28;20454;-68
2022/09/12 02:06:40;;;;;;;3.67;2.73;;;13.00;98.00;;;;;;5011406;28;20473;-68
2022/09/12 02:09:11;;;;;;;4.93;2.47;;;13.00;98.00;;;;;;5010959;28;20703;-68
2022/09/12 02:11:42;;;;;;;3.53;2.60;;;13.00;98.00;;;;;;5011122;28;20826;-67
2022/09/12 02:14:12;;;;;;;3.00;2.30;;;13.00;98.00;;;;;;5010988;28;20495;-68
2022/09/12 02:16:45;;;;;;;3.50;2.40;;;13.00;98.00;;;;;;5011013;28;20490;-67
2022/09/12 02:19:15;;;;;;;4.87;2.57;;;13.00;98.00;;;;;;5011075;28;20462;-68
2022/09/12 02:21:52;;;;;;;3.73;2.10;;;12.90;98.00;;;;;;5011384;28;20461;-68
2022/09/12 02:24:21;;;;;;;2.33;2.13;;;12.90;98.00;;;;;;5011413;28;20491;-67
2022/09/12 02:26:52;;;;;;;3.77;2.40;;;13.20;98.00;;;;;;5011153;28;20456;-68
2022/09/12 02:29:19;;;;;;;3.63;2.10;;;13.30;98.00;;;;;;5011190;28;20474;-67
2022/09/12 02:31:52;;;;;;;3.33;2.13;;;13.40;98.00;;;;;;5011170;28;20449;-68
2022/09/12 02:34:33;;;;;;;3.70;2.33;;;13.40;98.00;;;;;;5010824;28;20469;-67
2022/09/12 02:37:07;;;;;;;2.77;1.97;;;13.30;98.00;;;;;;4994291;28;20522;-67
2022/09/12 02:39:37;;;;;;;3.17;2.10;;;13.60;98.00;;;;;;5014455;28;20458;-69
2022/09/12 02:42:05;;;;;;;3.20;1.80;;;13.60;98.00;;;;;;5014533;28;20461;-68
2022/09/12 02:44:36;;;;;;;3.90;2.33;;;13.60;98.00;;;;;;5014589;28;20465;-67
2022/09/12 02:47:08;;;;;;;5.43;2.77;;;13.40;98.00;;;;;;5014410;28;20460;-68
2022/09/12 02:49:35;;;;;;;2.97;2.10;;;13.20;98.00;;;;;;5014233;28;20952;-68
2022/09/12 02:52:03;;;;;;;3.03;2.00;;;13.20;98.00;;;;;;5014576;28;20462;-68
2022/09/12 02:54:31;;;;;;;3.47;2.33;;;13.10;98.00;;;;;;5014176;28;20461;-68
2022/09/12 02:56:58;;;;;;;3.70;2.17;;;13.10;98.00;;;;;;5014427;28;20491;-68
2022/09/12 02:59:26;;;;;;;3.90;1.90;;;13.00;98.00;;;;;;5013926;28;20479;-68
2022/09/12 03:02:15;;;;;;;2.80;1.93;;;13.20;98.00;;;;;;5014181;28;20489;-69
2022/09/12 03:04:58;;;;;;;3.70;2.47;;;13.20;98.00;;;;;;4996638;28;20462;-68
2022/09/12 03:07:45;;;;;;;3.83;2.23;;;13.10;98.00;;;;;;5013996;28;20455;-68
2022/09/12 03:10:20;;;;;;;3.77;2.13;;;13.10;98.00;;;;;;5013897;28;20557;-67
2022/09/12 03:13:01;;;;;;;3.70;2.20;;;13.20;98.00;;;;;;5013846;28;20473;-68
2022/09/12 03:15:42;;;;;;;2.30;1.97;;;13.20;98.00;;;;;;5014349;28;20462;-67
2022/09/12 03:18:24;;;;;;;2.13;1.70;;;13.20;98.00;;;;;;5014083;28;20461;-67
2022/09/12 03:21:00;;;;;;;3.20;2.17;;;13.10;98.00;;;;;;4996692;28;20466;-67
2022/09/12 03:23:34;;;;;;;2.90;2.03;;;13.10;98.00;;;;;;5014005;28;20458;-67
2022/09/12 03:26:07;;;;;;;3.57;2.50;;;13.10;98.00;;;;;;5013924;28;20480;-67
2022/09/12 03:28:35;;;;;;;3.73;2.20;;;13.20;98.00;;;;;;5013582;28;20496;-68
2022/09/12 03:31:13;;;;;;;4.00;2.27;;;13.20;98.00;;;;;;5013511;28;20467;-67
2022/09/12 03:33:41;;;;;;;2.40;1.60;;;13.20;98.00;;;;;;5013652;28;20524;-67
2022/09/12 03:36:16;;;;;;;6.70;2.70;;;13.20;98.00;;;;;;5013667;28;20486;-68
2022/09/12 03:38:43;;;;;;;3.30;2.10;;;13.00;98.00;;;;;;5013691;28;20465;-67
2022/09/12 03:41:10;;;;;;;3.60;1.90;;;12.80;98.00;;;;;;5013316;28;20468;-68
2022/09/12 03:43:37;;;;;;;1.93;1.73;;;12.80;98.00;;;;;;5013268;28;20465;-68
2022/09/12 03:46:04;;;;;;;2.47;1.60;;;12.80;98.00;;;;;;5013687;28;20468;-67
2022/09/12 03:48:31;;;;;;;3.33;1.90;;;12.60;98.00;;;;;;5013602;28;20821;-68
2022/09/12 03:51:02;;;;;;;3.60;1.93;;;12.60;98.00;;;;;;5012404;28;20462;-67
2022/09/12 03:53:30;;;;;;;2.63;1.90;;;12.80;98.00;;;;;;5013123;28;20954;-67
2022/09/12 03:55:57;;;;;;;2.83;1.73;;;12.70;98.00;;;;;;5013003;28;20837;-67
2022/09/12 03:58:25;;;;;;;3.40;1.93;;;12.80;98.00;;;;;;5012957;28;20470;-67
2022/09/12 04:00:52;;;;;;;2.00;1.50;;;12.70;98.00;;;;;;5013016;28;20468;-67
2022/09/12 04:03:19;;;;;;;2.70;2.00;;;12.70;98.00;;;;;;5013371;28;20465;-67
2022/09/12 04:05:46;;;;;;;2.23;1.60;;;12.70;98.00;;;;;;5013281;28;20466;-68
2022/09/12 04:08:15;;;;;;;2.67;1.60;;;12.80;98.00;;;;;;5012688;28;20458;-68
2022/09/12 04:10:42;;;;;;;3.53;1.80;;;12.90;98.00;;;;;;5013156;28;20917;-67
2022/09/12 04:13:09;;;;;;;2.60;1.80;;;12.90;98.00;;;;;;5012784;28;20455;-67
2022/09/12 04:15:36;;;;;;;2.80;1.80;;;12.90;98.00;;;;;;5012941;28;20458;-68
2022/09/12 04:18:04;;;;;;;4.13;1.97;;;12.90;98.00;;;;;;5012907;28;20670;-68
2022/09/12 04:20:32;;;;;;;3.63;2.10;;;12.70;98.00;;;;;;5012907;28;20951;-67
2022/09/12 04:22:59;;;;;;;4.03;2.20;;;12.70;98.00;;;;;;5012869;28;20465;-67
2022/09/12 04:25:27;;;;;;;3.20;2.17;;;12.80;98.00;;;;;;5012586;28;20457;-69
2022/09/12 04:27:54;;;;;;;2.70;1.87;;;13.00;98.00;;;;;;5012545;28;20453;-68
2022/09/12 04:30:21;;;;;;;3.13;2.17;;;13.00;98.00;;;;;;5012556;28;20474;-68
2022/09/12 04:32:48;;;;;;;2.80;2.17;;;13.10;98.00;;;;;;5012469;28;20843;-68
2022/09/12 04:35:15;;;;;;;2.60;1.80;;;13.10;98.00;;;;;;5012354;28;20464;-67
2022/09/12 04:37:43;;;;;;;2.60;1.93;;;13.00;98.00;;;;;;5012352;28;20575;-68
2022/09/12 04:40:10;;;;;;;2.67;1.60;;;12.80;98.00;;;;;;5012317;28;20811;-67
2022/09/12 04:42:40;;;;;;;1.80;1.60;;;12.70;98.00;;;;;;5012400;28;20453;-67
2022/09/12 04:45:08;;;;;;;1.80;1.70;;;12.60;98.00;;;;;;5012323;28;20463;-68
2022/09/12 04:47:35;;;;;;;2.87;1.80;;;12.60;98.00;;;;;;5012026;28;20502;-69
2022/09/12 04:50:02;;;;;;;2.73;1.90;;;12.80;98.00;;;;;;5012157;28;20482;-67
2022/09/12 04:52:29;;;;;;;2.90;1.80;;;12.90;98.00;;;;;;5012175;28;20453;-67
2022/09/12 04:54:56;;;;;;;2.60;1.80;;;12.90;98.00;;;;;;5012118;28;20452;-67
2022/09/12 04:57:24;;;;;;;2.63;2.00;;;12.70;98.00;;;;;;5012062;28;20483;-68
2022/09/12 04:59:53;;;;;;;3.80;2.00;;;12.50;98.00;;;;;;5011882;28;20480;-67
2022/09/12 05:02:20;;;;;;;1.60;1.43;;;12.50;98.00;;;;;;5011749;28;20476;-67
2022/09/12 05:04:47;;;;;;;2.67;2.17;;;12.50;98.00;;;;;;5012139;28;20457;-67
2022/09/12 05:07:14;;;;;;;1.83;1.63;;;12.50;98.00;;;;;;5011817;28;21006;-68
2022/09/12 05:09:41;;;;;;;2.80;2.20;;;12.60;98.00;;;;;;5011728;28;20462;-67
2022/09/12 05:12:08;;;;;;;3.40;2.23;;;12.50;98.00;;;;;;5012034;28;20497;-68
2022/09/12 05:14:36;;;;;;;3.40;2.30;;;12.60;98.00;;;;;;5011740;28;20466;-68
2022/09/12 05:17:05;;;;;;;2.90;2.17;;;12.60;98.00;;;;;;5011671;28;20515;-67
2022/09/12 05:19:32;;;;;;;3.17;2.07;;;12.50;98.00;;;;;;5012143;28;20460;-67
2022/09/12 05:22:00;;;;;;;3.63;1.90;;;12.50;98.00;;;;;;5011947;28;20493;-67
2022/09/12 05:24:27;;;;;;;3.50;2.20;;;12.40;98.00;;;;;;5011932;28;20850;-67
2022/09/12 05:26:54;;;;;;;2.23;1.47;;;12.50;98.00;;;;;;5012081;28;20836;-68
2022/09/12 05:29:32;;;;;;;4.10;2.13;;;12.50;98.00;;;;;;5012196;28;20465;-67
2022/09/12 05:31:59;;;;;;;2.93;2.00;;;12.50;98.00;;;;;;5012521;28;20463;-67
2022/09/12 05:34:28;;;;;;;2.53;1.70;;;12.50;98.00;;;;;;5011932;28;20469;-67
2022/09/12 05:36:58;;;;;;;3.93;2.20;;;12.50;98.00;;;;;;5011467;28;20484;-67
2022/09/12 05:39:26;;;;;;;2.90;2.23;;;12.40;98.00;;;;;;5011482;28;20657;-67
2022/09/12 05:41:55;;;;;;;3.00;1.93;;;12.40;98.00;;;;;;5011607;28;20465;-67
2022/09/12 05:44:22;;;;;;;2.37;1.60;;;12.40;98.00;;;;;;5011409;28;20525;-67
2022/09/12 05:46:50;;;;;;;2.97;2.13;;;12.40;98.00;;;;;;5011767;28;20492;-68
2022/09/12 05:49:17;;;;;;;3.57;2.07;;;12.50;98.00;;;;;;5011167;28;20452;-68
2022/09/12 05:51:46;;;;;;;2.07;1.90;;;12.60;98.00;;;;;;5011354;28;20454;-67
2022/09/12 05:54:14;;;;;;;3.13;2.10;;;12.70;98.00;;;;;;5011310;28;20455;-67
2022/09/12 05:56:43;;;;;;;3.33;2.27;;;12.60;98.00;;;;;;5011037;28;20481;-68
2022/09/12 05:59:13;;;;;;;2.73;2.00;;;12.60;98.00;;;;;;5010979;28;20482;-67
2022/09/12 06:01:41;;;;;;;2.20;1.77;;;12.80;98.00;;;;;;5011636;28;20949;-67
2022/09/12 06:04:08;;;;;;;3.67;1.97;;;13.00;98.00;;;;;;5011049;28;20466;-68
2022/09/12 06:06:37;;;;;;;2.53;1.50;;;13.10;98.00;;;;;;5011144;28;20452;-68
2022/09/12 06:09:07;;;;;;;3.40;1.80;;;13.10;98.00;;;;;;5011069;28;20456;-67
2022/09/12 06:11:36;;;;;;;3.20;2.23;;;13.20;98.00;;;;;;5011544;28;20455;-67
2022/09/12 06:14:04;;;;;;;5.90;2.60;;;13.20;98.00;;;;;;5013866;28;20490;-67
2022/09/12 06:16:32;;;;;;;2.43;1.80;;;13.20;98.00;;;;;;5015140;28;20467;-68
2022/09/12 06:19:02;;;;;;;4.97;2.50;;;13.20;98.00;;;;;;5015197;28;20457;-67
2022/09/12 06:21:30;;;;;;;3.30;1.90;;;13.30;98.00;;;;;;5014978;28;20464;-67
2022/09/12 06:23:58;;;;;;;3.87;1.90;;;13.40;98.00;;;;;;5014964;28;20497;-67
2022/09/12 06:26:28;;;;;;;4.40;2.40;;;13.60;98.00;;;;;;5014938;28;20895;-67
2022/09/12 06:28:56;;;;;;;4.37;2.40;;;13.60;98.00;;;;;;5014772;28;20493;-67
2022/09/12 06:31:27;;;;;;;3.43;2.23;;;13.50;98.00;;;;;;5014825;28;20457;-66
2022/09/12 06:33:55;;;;;;;2.50;1.93;;;13.50;98.00;;;;;;5014635;28;20472;-73
2022/09/12 06:36:24;;;;;;;4.07;2.60;;;13.60;98.00;;;;;;5014527;28;20473;-73
2022/09/12 06:38:56;;;;;;;4.63;2.93;;;13.60;98.00;;;;;;5014536;28;20492;-73
2022/09/12 06:41:24;;;;;;;4.57;2.50;;;13.70;98.00;;;;;;5014592;28;20549;-74
2022/09/12 06:43:53;;;;;;;3.40;2.43;;;13.70;98.00;;;;;;5014459;28;20472;-74
2022/09/12 06:46:21;;;;;;;5.80;2.80;;;13.70;98.00;;;;;;5014360;28;20474;-75
2022/09/12 06:48:49;;;;;;;3.73;2.13;;;13.60;98.00;;;;;;5014638;28;20469;-75
2022/09/12 06:51:18;;;;;;;4.33;2.20;;;13.80;98.00;;;;;;5014430;28;20492;-74
2022/09/12 06:53:47;;;;;;;4.00;2.40;;;13.90;98.00;;;;;;5014486;28;20551;-75
2022/09/12 06:56:16;;;;;;;6.73;2.50;;;14.00;98.00;;;;;;5014336;28;20457;-75
2022/09/12 06:58:45;;;;;;;2.90;2.07;;;14.00;98.00;;;;;;5014125;28;20487;-74
2022/09/12 07:01:15;;;;;;;3.63;2.20;;;14.10;98.00;;;;;;4994687;28;20474;-75
2022/09/12 07:03:43;;;;;;;3.80;2.40;;;14.10;98.00;;;;;;4994644;28;20461;-74
2022/09/12 07:06:12;;;;;;;4.67;2.53;;;14.10;98.00;;;;;;4994504;28;20465;-75
2022/09/12 07:08:40;;;;;;;5.53;2.50;;;14.00;98.00;;;;;;4994490;28;20725;-74
2022/09/12 07:11:13;;;;;;;4.67;2.47;;;13.90;98.00;;;;;;4994529;28;20461;-73
2022/09/12 07:13:41;;;;;;;4.10;2.47;;;13.70;98.00;;;;;;4994545;28;20465;-75
2022/09/12 07:16:09;;;;;;;4.33;2.80;;;13.80;98.00;;;;;;4994731;28;20467;-75
2022/09/12 07:18:38;;;;;;;2.53;1.90;;;14.00;98.00;;;;;;4994184;28;20511;-76
2022/09/12 07:21:11;;;;;;;4.43;2.33;;;14.00;98.00;;;;;;4994656;28;20470;-74
2022/09/12 07:23:38;;;;;;;3.20;2.20;;;14.10;98.00;;;;;;4993883;28;20462;-73
2022/09/12 07:26:06;;;;;;;3.93;2.53;;;14.10;98.00;;;;;;4993270;28;21061;-73
2022/09/12 07:28:34;;;;;;;4.03;2.67;;;14.20;98.00;;;;;;4993969;28;20822;-73
2022/09/12 07:31:07;;;;;;;4.90;2.40;;;14.20;98.00;;;;;;5010356;28;20497;-73
2022/09/12 07:33:35;;;;;;;3.70;2.73;;;14.40;98.00;;;;;;5009776;28;20476;-74
2022/09/12 07:36:09;;;;;;;2.83;2.10;;;14.40;98.00;;;;;;4998606;28;20976;-74
2022/09/12 07:38:40;;;;;;;4.87;3.00;;;14.60;98.00;;;;;;4983214;28;20601;-73
2022/09/12 07:41:18;;;;;;;4.30;2.90;;;14.60;98.00;;;;;;5003863;28;20466;-76
2022/09/12 07:43:46;;;;;;;2.80;2.27;;;14.80;98.00;;;;;;4995890;28;20848;-74
2022/09/12 07:46:14;;;;;;;3.30;2.40;;;15.10;98.00;;;;;;4991197;28;20474;-75
2022/09/12 07:48:41;;;;;;;2.63;2.00;;;15.20;98.00;;;;;;5000855;28;20460;-75
2022/09/12 07:51:11;;;;;;;4.00;2.47;;;15.50;98.00;;;;;;4989481;28;20459;-73
2022/09/12 07:53:40;;;;;;;3.57;2.30;;;15.60;98.00;;;;;;4996424;28;20466;-73
2022/09/12 07:56:09;;;;;;;8.90;3.07;;;15.60;98.00;;;;;;5000000;28;20469;-72
2022/09/12 07:58:38;;;;;;;5.07;2.43;;;15.70;98.00;;;;;;4994983;28;21039;-74
2022/09/12 08:01:07;;;;;;;2.90;2.33;;;15.80;98.00;;;;;;5005484;28;20481;-73
2022/09/12 08:03:34;;;;;;;4.40;2.53;;;15.80;98.00;;;;;;5004807;28;20467;-74
2022/09/12 08:06:05;;;;;;;2.37;1.83;;;16.00;98.00;;;;;;5001530;28;20463;-66
2022/09/12 08:08:34;;;;;;;2.80;1.90;;;16.20;98.00;;;;;;4997802;28;20467;-66
2022/09/12 08:11:02;;;;;;;3.63;2.17;;;16.70;98.00;;;;;;4994730;28;20464;-61
2022/09/12 08:13:30;;;;;;;4.30;2.47;;;16.80;98.00;;;;;;4995082;28;20964;-60
2022/09/12 08:16:01;;;;;;;5.40;2.80;;;17.10;98.00;;;;;;4983102;28;20460;-59
2022/09/12 08:18:28;;;;;;;3.87;2.50;;;17.30;98.00;;;;;;5010102;28;20503;-62
2022/09/12 08:20:59;;;;;;;4.27;2.60;;;17.50;98.00;;;;;;4996147;28;20444;-58
2022/09/12 08:23:27;;;;;;;4.57;2.97;;;17.70;98.00;;;;;;5002344;28;20515;-61
2022/09/12 08:25:57;;;;;;;4.27;2.57;;;18.00;98.00;;;;;;4992968;28;20453;-60
2022/09/12 08:28:28;;;;;;;5.40;3.10;;;18.30;98.00;;;;;;4995245;28;20893;-60
2022/09/12 08:31:00;;;;;;;4.90;2.77;;;18.50;98.00;;;;;;4997330;28;20467;-58
2022/09/12 08:33:31;;;;;;;6.83;3.30;;;18.60;98.00;;;;;;5008661;28;20454;-58
2022/09/12 08:36:04;;;;;;;4.77;2.60;;;18.70;98.00;;;;;;4984897;28;20453;-60
2022/09/12 08:38:33;;;;;;;3.17;2.30;;;18.80;98.00;;;;;;4997893;28;20578;-59
2022/09/12 08:41:09;;;;;;;5.10;2.90;;;19.00;98.00;;;;;;5001470;28;20547;-60
2022/09/12 08:43:53;;;;;;;3.43;2.20;;;19.10;98.00;;;;;;4999647;28;20471;-60
2022/09/12 08:46:23;;;;;;;3.97;2.40;;;19.40;98.00;;;;;;4999517;28;20475;-59
2022/09/12 08:48:52;;;;;;;5.77;2.50;;;19.50;98.00;;;;;;5008622;28;20459;-60
2022/09/12 08:51:20;;;;;;;3.00;2.20;;;19.70;98.00;;;;;;5003767;28;20867;-60
2022/09/12 08:53:50;;;;;;;8.40;2.93;;;19.90;98.00;;;;;;4993396;28;20465;-59
2022/09/12 08:56:20;;;;;;;4.90;3.10;;;20.10;98.00;;;;;;5007911;28;20472;-60
2022/09/12 08:58:48;;;;;;;4.30;2.37;;;20.30;98.00;;;;;;4991310;28;20561;-60
2022/09/12 09:01:24;;;;;;;5.30;3.10;;;20.50;98.00;;;;;;5018749;28;20513;-59
2022/09/12 09:04:26;;;;;;;4.13;2.77;;;20.70;98.00;;;;;;4991857;28;20462;-60
2022/09/12 09:07:07;;;;;;;4.57;2.90;;;20.90;98.00;;;;;;5008115;28;20462;-59
2022/09/12 09:09:53;;;;;;;4.93;2.80;;;21.00;98.00;;;;;;4993288;28;20874;-61
2022/09/12 09:12:29;;;;;;;4.93;2.87;;;21.10;98.00;;;;;;5005078;28;20467;-61
2022/09/12 09:15:27;;;;;;;4.37;2.60;;;21.30;98.00;;;;;;5028754;28;20461;-66
2022/09/12 09:18:00;;;;;;;3.50;2.60;;;21.50;98.00;;;;;;5011788;28;20489;-73
2022/09/12 09:20:35;;;;;;;4.00;2.70;;;21.70;98.00;;;;;;5018878;28;21038;-71
2022/09/12 09:23:07;;;;;;;4.90;2.77;;;21.80;98.00;;;;;;5010919;28;20463;-71
2022/09/12 09:25:43;;;;;;;3.60;2.13;;;21.80;98.00;;;;;;5009257;28;20463;-73
2022/09/12 09:28:18;;;;;;;3.40;2.47;;;21.90;98.00;;;;;;5019378;28;20471;-67
2022/09/12 09:30:47;;;;;;;2.53;2.10;;;22.10;98.00;;;;;;5027745;28;20466;-71
2022/09/12 09:33:21;;;;;;;3.73;2.40;;;22.30;98.00;;;;;;5018115;28;20455;-71
2022/09/12 09:35:56;;;;;;;5.67;2.53;;;22.50;98.00;;;;;;5027213;28;20466;-70
2022/09/12 09:38:29;;;;;;;2.63;1.97;;;22.60;98.00;;;;;;5016614;28;20502;-66
2022/09/12 09:41:07;;;;;;;4.10;2.30;;;22.70;98.00;;;;;;5018741;28;20466;-67
2022/09/12 09:43:38;;;;;;;3.60;2.60;;;22.90;98.00;;;;;;5018947;28;20454;-66
2022/09/12 09:46:06;;;;;;;3.50;2.33;;;23.00;98.00;;;;;;5027932;28;20854;-66
2022/09/12 09:48:36;;;;;;;2.60;1.93;;;23.10;98.00;;;;;;5026355;28;20889;-67
2022/09/12 09:51:08;;;;;;;2.53;2.07;;;23.20;98.00;;;;;;5013989;28;20454;-67
2022/09/12 09:53:41;;;;;;;3.57;2.30;;;23.40;98.00;;;;;;5018497;28;20981;-66
2022/09/12 09:56:13;;;;;;;4.50;2.50;;;23.50;98.00;;;;;;5008462;28;20459;-68
2022/09/12 09:58:42;;;;;;;2.40;1.90;;;23.60;98.00;;;;;;5017787;28;20495;-67
2022/09/12 10:01:16;;;;;;;2.20;1.87;;;23.80;98.00;;;;;;4998075;28;20463;-66
2022/09/12 10:03:49;;;;;;;2.90;2.13;;;23.90;97.10;;;;;;5007129;28;20558;-66
2022/09/12 10:06:33;;;;;;;3.67;2.10;;;24.00;94.60;;;;;;4989245;28;20508;-67
2022/09/12 10:09:19;;;;;;;4.00;2.40;;;24.20;91.00;;;;;;4990307;28;20460;-68
2022/09/12 10:11:46;;;;;;;4.67;2.70;;;24.40;93.80;;;;;;4987294;28;20905;-68
2022/09/12 10:14:35;;;;;;;3.40;2.40;;;24.60;92.90;;;;;;5008761;28;20467;-66
2022/09/12 10:17:04;;;;;;;3.13;1.80;;;24.70;92.00;;;;;;4993179;28;20548;-68
2022/09/12 10:19:36;;;;;;;3.30;2.17;;;24.80;89.80;;;;;;4991696;28;20492;-66
2022/09/12 10:22:05;;;;;;;2.13;1.90;;;24.80;90.50;;;;;;4992288;28;20472;-66
2022/09/12 10:24:37;;;;;;;2.90;2.20;;;24.90;89.40;;;;;;4992210;28;20597;-67
2022/09/12 10:27:13;;;;;;;3.80;2.00;;;25.00;89.60;;;;;;4992116;28;20460;-66
2022/09/12 10:29:47;;;;;;;9.10;2.00;;;25.20;91.50;;;;;;4991988;28;20483;-67
2022/09/12 10:32:23;;;;;;;3.20;2.03;;;25.30;90.90;;;;;;4991638;28;20475;-69
2022/09/12 10:34:54;;;;;;;3.13;2.30;;;25.40;89.10;;;;;;4991879;28;20563;-70
2022/09/12 10:37:27;;;;;;;2.90;2.00;;;25.60;89.00;;;;;;4991472;28;20464;-71
2022/09/12 10:39:57;;;;;;;2.50;1.90;;;25.70;87.80;;;;;;4991717;28;20488;-70
2022/09/12 10:42:48;;;;;;;2.37;1.77;;;25.90;86.40;;;;;;4991691;28;20488;-70
2022/09/12 10:45:23;;;;;;;3.40;2.10;;;26.00;85.20;;;;;;4991931;28;20465;-71
2022/09/12 10:47:50;;;;;;;2.40;1.80;;;26.20;85.50;;;;;;4991887;28;20496;-71
2022/09/12 10:50:24;;;;;;;3.50;2.20;;;26.40;86.80;;;;;;4991899;28;20464;-71
2022/09/12 10:52:52;;;;;;;2.93;2.10;;;26.30;84.80;;;;;;4991741;28;20502;-71
2022/09/12 10:55:25;;;;;;;2.50;2.20;;;26.50;85.70;;;;;;4991832;28;20603;-70
2022/09/12 10:58:10;;;;;;;4.70;2.27;;;26.70;83.50;;;;;;4991777;28;20471;-66
2022/09/12 11:00:45;;;;;;;2.23;1.60;;;26.60;83.10;;;;;;4989064;28;20471;-71
2022/09/12 11:05:51;;;;;;;2.20;1.90;;;26.80;83.50;;;;;;5032942;28;20509;-70
2022/09/12 11:08:48;;;;;;;2.50;1.90;;;27.10;82.70;;;;;;5034521;28;20477;-70
2022/09/12 11:11:30;;;;;;;2.97;2.00;;;27.40;81.70;;;;;;5029381;28;20459;-71
2022/09/12 11:14:14;;;;;;;2.73;2.10;;;27.60;81.60;;;;;;5034627;28;20462;-69
2022/09/12 11:16:51;;;;;;;2.13;1.77;;;27.90;82.20;;;;;;5034041;28;20466;-69
2022/09/12 11:20:11;;;;;;;3.13;2.13;;;28.20;79.90;;;;;;5031295;28;20498;-70
2022/09/12 11:23:00;;;;;;;3.00;2.10;;;28.50;78.90;;;;;;4953365;29;20523;-68
2022/09/12 11:25:33;;;;;;;2.53;2.00;;;28.70;79.90;;;;;;4952826;29;20558;-69
2022/09/12 11:28:18;;;;;;;2.60;2.10;;;28.70;78.70;;;;;;4992588;28;20467;-71
2022/09/12 11:30:55;;;;;;;2.67;1.97;;;28.70;78.40;;;;;;5014342;28;20954;-68
2022/09/12 11:33:40;;;;;;;2.60;2.07;;;28.50;78.50;;;;;;5014513;28;20463;-71
2022/09/12 11:36:17;;;;;;;3.17;1.90;;;28.50;78.80;;;;;;5014210;28;20464;-69
2022/09/12 11:39:10;;;;;;;2.20;1.90;;;28.50;78.00;;;;;;5014283;28;20916;-69
2022/09/12 11:41:41;;;;;;;2.90;2.00;;;28.50;78.10;;;;;;5014259;28;20455;-71
2022/09/12 11:44:20;;;;;;;2.50;1.80;;;28.40;78.90;;;;;;5014112;28;20463;-69
2022/09/12 11:46:47;;;;;;;2.20;1.63;;;28.50;78.70;;;;;;5014270;28;20463;-72
2022/09/12 11:49:24;;;;;;;2.20;1.90;;;28.60;78.40;;;;;;5013789;28;20456;-70
2022/09/12 11:51:56;;;;;;;2.60;2.10;;;28.80;77.70;;;;;;5014149;28;20952;-69
2022/09/12 11:54:30;;;;;;;2.53;2.10;;;28.80;76.20;;;;;;5013127;28;20455;-71
2022/09/12 11:57:06;;;;;;;2.43;1.63;;;28.90;76.90;;;;;;5013455;28;20526;-71
2022/09/12 11:59:41;;;;;;;2.83;1.97;;;29.00;77.40;;;;;;5013140;28;20581;-71
2022/09/12 12:02:17;;;;;;;2.57;2.00;;;29.00;76.00;;;;;;5013131;28;20463;-69
2022/09/12 12:05:02;;;;;;;2.63;1.87;;;29.10;77.30;;;;;;4995657;28;20865;-68
2022/09/12 12:07:38;;;;;;;2.90;2.17;;;29.40;76.40;;;;;;5013101;28;20463;-67
2022/09/12 12:10:05;;;;;;;3.00;2.20;;;29.70;75.60;;;;;;5012674;28;20463;-68
2022/09/12 12:12:34;;;;;;;2.50;1.90;;;29.80;72.80;;;;;;5012695;28;20468;-70
2022/09/12 12:15:02;;;;;;;2.27;1.93;;;30.10;73.70;;;;;;5013042;28;20463;-69
2022/09/12 12:17:29;;;;;;;2.60;2.00;;;30.00;74.80;;;;;;5013064;28;20452;-70
2022/09/12 12:20:04;;;;;;;2.43;1.83;;;30.00;72.00;;;;;;5012805;28;20879;-73
2022/09/12 12:22:32;;;;;;;2.83;2.00;;;29.90;74.80;;;;;;5013349;28;20467;-69
2022/09/12 12:25:24;;;;;;;2.60;1.77;;;30.10;74.00;;;;;;5013068;28;20563;-68
2022/09/12 12:27:55;;;;;;;2.60;2.00;;;30.50;72.80;;;;;;5012928;28;20464;-69
2022/09/12 12:31:04;;;;;;;2.43;1.80;;;30.80;72.10;;;;;;5012589;28;20443;-70
2022/09/12 12:34:00;;;;;;;2.10;1.90;;;31.00;72.00;;;;;;5012639;28;20533;-70
2022/09/12 12:36:43;;;;;;;2.30;2.00;;;31.20;70.30;;;;;;5012604;28;20821;-70
2022/09/12 12:39:50;;;;;;;2.27;1.80;;;31.40;71.10;;;;;;5012240;28;20487;-70
2022/09/12 12:43:00;;;;;;;1.87;1.70;;;31.50;69.20;;;;;;5012595;28;20464;-70
2022/09/12 12:46:03;;;;;;;3.50;2.13;;;31.60;68.90;;;;;;5027766;28;20525;-70
2022/09/12 12:48:36;;;;;;;2.00;1.87;;;31.80;70.20;;;;;;5032127;28;20462;-70
2022/09/12 12:51:42;;;;;;;2.37;1.70;;;31.90;67.10;;;;;;5032216;28;20489;-69
2022/09/12 12:54:55;;;;;;;1.83;1.60;;;32.00;65.60;;;;;;5031985;28;20480;-68
2022/09/12 12:57:51;;;;;;;2.70;1.97;;;31.80;69.60;;;;;;5031722;28;20554;-69
2022/09/12 13:00:31;;;;;;;2.30;1.90;;;31.80;68.00;;;;;;5032028;28;20851;-69
2022/09/12 13:03:10;;;;;;;3.07;1.97;;;31.90;69.90;;;;;;5031700;28;20462;-69
2022/09/12 13:05:43;;;;;;;3.13;2.17;;;32.00;67.90;;;;;;5031565;28;20848;-70
2022/09/12 13:08:30;;;;;;;2.23;1.70;;;32.00;69.30;;;;;;5031695;28;20547;-71
2022/09/12 13:11:01;;;;;;;2.83;1.97;;;31.90;69.60;;;;;;5031992;28;20553;-70
2022/09/12 13:13:36;;;;;;;3.13;2.30;;;31.90;68.70;;;;;;5029762;28;20687;-70
2022/09/12 13:16:03;;;;;;;2.27;2.00;;;32.20;68.50;;;;;;5031856;28;20450;-69
2022/09/12 13:18:42;;;;;;;2.30;1.80;;;32.30;67.60;;;;;;5031671;28;20466;-69
2022/09/12 13:21:12;;;;;;;1.90;1.80;;;32.40;67.70;;;;;;5012977;28;20458;-70